createdAt,value
2023-05-19T00:01:52.653Z,10.62
2023-05-19T00:04:40.740Z,10.64
2023-05-19T00:07:18.837Z,10.66
2023-05-19T00:09:57.708Z,10.69
2023-05-19T00:12:38.881Z,10.73
2023-05-19T00:15:33.013Z,10.76
2023-05-19T00:18:26.662Z,10.77
2023-05-19T00:20:59.738Z,10.74
2023-05-19T00:23:32.394Z,10.73
2023-05-19T00:26:05.127Z,10.70
2023-05-19T00:28:38.316Z,10.69
2023-05-19T00:31:13.954Z,10.69
2023-05-19T00:33:49.795Z,10.71
2023-05-19T00:36:22.501Z,10.73
2023-05-19T00:38:57.440Z,10.75
2023-05-19T00:41:36.065Z,10.78
2023-05-19T00:44:09.620Z,10.79
2023-05-19T00:46:44.805Z,10.79
2023-05-19T00:49:20.632Z,10.80
2023-05-19T00:51:55.182Z,10.81
2023-05-19T00:54:31.616Z,10.79
2023-05-19T00:57:07.673Z,10.76
2023-05-19T00:59:40.696Z,10.73
2023-05-19T01:02:16.287Z,10.72
2023-05-19T01:04:53.724Z,10.69
2023-05-19T01:07:29.220Z,10.68
2023-05-19T01:10:05.681Z,10.67
2023-05-19T01:12:58.386Z,10.67
2023-05-19T01:15:35.498Z,10.65
2023-05-19T01:18:26.110Z,10.65
2023-05-19T01:21:10.966Z,10.64
2023-05-19T01:23:57.231Z,10.62
2023-05-19T01:26:56.510Z,10.61
2023-05-19T01:29:44.250Z,10.61
2023-05-19T01:32:22.348Z,10.60
2023-05-19T01:34:56.800Z,10.58
2023-05-19T01:37:33.371Z,10.56
2023-05-19T01:40:16.715Z,10.54
2023-05-19T01:42:55.541Z,10.54
2023-05-19T01:45:34.178Z,10.55
2023-05-19T01:48:10.880Z,10.55
2023-05-19T01:50:57.347Z,10.53
2023-05-19T01:53:32.648Z,10.53
2023-05-19T01:56:06.679Z,10.55
2023-05-19T01:58:54.273Z,10.55
2023-05-19T02:01:37.279Z,10.54
2023-05-19T02:04:28.767Z,10.52
2023-05-19T02:07:03.060Z,10.52
2023-05-19T02:09:50.491Z,10.51
2023-05-19T02:12:34.333Z,10.53
2023-05-19T02:15:15.992Z,10.52
2023-05-19T02:17:54.788Z,10.54
2023-05-19T02:20:30.482Z,10.56
2023-05-19T02:23:06.897Z,10.58
2023-05-19T02:25:44.704Z,10.59
2023-05-19T02:28:20.887Z,10.61
2023-05-19T02:31:08.911Z,10.63
2023-05-19T02:33:44.387Z,10.67
2023-05-19T02:36:16.945Z,10.69
2023-05-19T02:39:01.148Z,10.70
2023-05-19T02:41:37.066Z,10.71
2023-05-19T02:44:13.068Z,10.74
2023-05-19T02:47:06.145Z,10.73
2023-05-19T02:49:48.828Z,10.72
2023-05-19T02:52:21.510Z,10.74
2023-05-19T02:54:56.867Z,10.75
2023-05-19T02:57:38.626Z,10.78
2023-05-19T03:00:13.277Z,10.81
2023-05-19T03:02:46.161Z,10.83
2023-05-19T03:05:23.310Z,10.85
2023-05-19T03:07:59.378Z,10.87
2023-05-19T03:10:43.175Z,10.87
2023-05-19T03:13:20.483Z,10.87
2023-05-19T03:15:57.948Z,10.87
2023-05-19T03:18:35.633Z,10.87
2023-05-19T03:21:08.719Z,10.86
2023-05-19T03:23:44.367Z,10.86
2023-05-19T03:26:19.771Z,10.87
2023-05-19T03:28:55.254Z,10.89
2023-05-19T03:31:48.168Z,10.89
2023-05-19T03:34:23.998Z,10.87
2023-05-19T03:36:59.339Z,10.85
2023-05-19T03:39:35.454Z,10.83
2023-05-19T03:42:11.245Z,10.83
2023-05-19T03:44:46.425Z,10.84
2023-05-19T03:47:22.772Z,10.84
2023-05-19T03:50:25.080Z,10.83
2023-05-19T03:53:02.000Z,10.84
2023-05-19T03:55:48.618Z,10.86
2023-05-19T03:58:21.362Z,10.89
2023-05-19T04:01:05.017Z,10.94
2023-05-19T04:03:40.172Z,11.01
2023-05-19T04:06:15.869Z,11.10
2023-05-19T04:08:50.569Z,11.17
2023-05-19T04:11:26.359Z,11.24
2023-05-19T04:14:01.631Z,11.26
2023-05-19T04:16:37.217Z,11.29
2023-05-19T04:19:10.043Z,11.31
2023-05-19T04:21:47.967Z,11.29
2023-05-19T04:24:20.823Z,11.28
2023-05-19T04:26:56.326Z,11.27
2023-05-19T04:29:32.714Z,11.29
2023-05-19T04:32:25.991Z,11.25
2023-05-19T04:35:03.542Z,11.22
2023-05-19T04:37:40.659Z,11.20
2023-05-19T04:40:34.629Z,11.18
2023-05-19T04:43:19.405Z,11.17
2023-05-19T04:46:06.462Z,11.16
2023-05-19T04:48:42.963Z,11.14
2023-05-19T04:51:18.782Z,11.14
2023-05-19T04:53:51.736Z,11.15
2023-05-19T04:56:27.620Z,11.16
2023-05-19T04:59:03.874Z,11.20
2023-05-19T05:01:40.384Z,11.21
2023-05-19T05:04:17.634Z,11.25
2023-05-19T05:06:53.537Z,11.35
2023-05-19T05:09:26.601Z,11.47
2023-05-19T05:12:07.637Z,11.61
2023-05-19T05:14:51.335Z,11.78
2023-05-19T05:17:33.412Z,11.99
2023-05-19T05:20:08.393Z,12.12
2023-05-19T05:23:02.515Z,12.23
2023-05-19T05:25:37.402Z,12.38
2023-05-19T05:28:10.228Z,12.48
2023-05-19T05:30:43.791Z,12.56
2023-05-19T05:33:17.456Z,12.59
2023-05-19T05:35:51.220Z,12.58
2023-05-19T05:38:25.817Z,12.59
2023-05-19T05:41:00.546Z,12.63
2023-05-19T05:43:33.623Z,12.61
2023-05-19T05:46:08.433Z,12.59
2023-05-19T05:48:43.090Z,12.56
2023-05-19T05:51:18.255Z,12.53
2023-05-19T05:53:55.767Z,12.48
2023-05-19T05:56:35.073Z,12.42
2023-05-19T05:59:12.201Z,12.37
2023-05-19T06:01:45.608Z,12.28
2023-05-19T06:04:18.014Z,12.20
2023-05-19T06:06:52.721Z,12.21
2023-05-19T06:09:27.986Z,12.22
2023-05-19T06:12:02.758Z,12.23
2023-05-19T06:14:39.419Z,12.23
2023-05-19T06:17:22.514Z,12.25
2023-05-19T06:19:59.766Z,12.29
2023-05-19T06:22:36.143Z,12.32
2023-05-19T06:25:14.080Z,12.31
2023-05-19T06:27:50.278Z,12.29
2023-05-19T06:30:26.132Z,12.29
2023-05-19T06:33:19.062Z,12.28
2023-05-19T06:35:51.939Z,12.27
2023-05-19T06:38:28.911Z,12.27
2023-05-19T06:41:04.586Z,12.31
2023-05-19T06:43:41.643Z,12.38
2023-05-19T06:46:19.368Z,12.41
2023-05-19T06:48:54.471Z,12.44
2023-05-19T06:51:28.565Z,12.46
2023-05-19T06:54:03.245Z,12.45
2023-05-19T06:56:38.459Z,12.49
2023-05-19T06:59:13.212Z,12.58
2023-05-19T07:01:45.874Z,12.67
2023-05-19T07:04:22.763Z,12.71
2023-05-19T07:06:55.543Z,12.75
2023-05-19T07:09:38.576Z,12.79
2023-05-19T07:12:31.230Z,12.86
2023-05-19T07:15:23.936Z,12.91
2023-05-19T07:18:07.139Z,12.99
2023-05-19T07:20:41.958Z,13.12
2023-05-19T07:23:21.979Z,13.20
2023-05-19T07:25:59.127Z,13.27
2023-05-19T07:28:43.634Z,13.32
2023-05-19T07:31:17.601Z,13.30
2023-05-19T07:33:53.018Z,13.22
2023-05-19T07:36:27.269Z,13.15
2023-05-19T07:39:11.037Z,13.12
2023-05-19T07:41:55.829Z,13.08
2023-05-19T07:44:48.730Z,13.07
2023-05-19T07:47:32.759Z,13.07
2023-05-19T07:50:10.330Z,13.06
2023-05-19T07:53:05.251Z,13.05
2023-05-19T07:55:48.309Z,13.11
2023-05-19T07:58:41.439Z,13.25
2023-05-19T08:01:34.367Z,13.38
2023-05-19T08:04:27.962Z,13.44
2023-05-19T08:07:20.823Z,13.52
2023-05-19T08:10:03.517Z,13.53
2023-05-19T08:12:59.122Z,13.49
2023-05-19T08:15:52.216Z,13.50
2023-05-19T08:18:46.392Z,13.52
2023-05-19T08:21:39.622Z,13.54
2023-05-19T08:24:36.274Z,13.53
2023-05-19T08:27:29.365Z,13.59
2023-05-19T08:30:23.597Z,13.66
2023-05-19T08:33:07.189Z,13.69
2023-05-19T08:35:40.092Z,13.70
2023-05-19T08:38:23.196Z,13.81
2023-05-19T08:40:58.184Z,13.95
2023-05-19T08:43:50.859Z,14.08
2023-05-19T08:46:43.985Z,14.10
2023-05-19T08:49:44.451Z,14.11
2023-05-19T08:52:49.462Z,14.21
2023-05-19T08:55:43.436Z,14.37
2023-05-19T08:58:39.523Z,14.48
2023-05-19T09:01:28.300Z,14.53
2023-05-19T09:04:22.341Z,14.52
2023-05-19T09:07:18.909Z,14.40
2023-05-19T09:09:52.168Z,14.27
2023-05-19T09:12:47.639Z,14.16
2023-05-19T09:15:42.479Z,14.01
2023-05-19T09:18:35.604Z,13.95
2023-05-19T09:21:19.128Z,13.91
2023-05-19T09:24:13.105Z,13.92
2023-05-19T09:27:06.370Z,13.93
2023-05-19T09:29:42.052Z,13.92
2023-05-19T09:32:36.786Z,13.96
2023-05-19T09:35:29.951Z,14.03
2023-05-19T09:38:23.043Z,14.14
2023-05-19T09:41:17.642Z,14.25
2023-05-19T09:44:13.754Z,14.37
2023-05-19T09:47:07.195Z,14.49
2023-05-19T09:50:00.384Z,14.62
2023-05-19T09:52:53.487Z,14.80
2023-05-19T09:55:47.555Z,14.98
2023-05-19T09:58:43.034Z,15.12
2023-05-19T10:01:37.680Z,15.20
2023-05-19T10:04:31.708Z,15.22
2023-05-19T10:07:26.724Z,15.16
2023-05-19T10:10:21.256Z,15.14
2023-05-19T10:13:15.417Z,15.28
2023-05-19T10:16:10.028Z,15.40
2023-05-19T10:19:03.804Z,15.55
2023-05-19T10:21:57.325Z,15.71
2023-05-19T10:24:50.258Z,15.69
2023-05-19T10:27:35.124Z,15.61
2023-05-19T10:30:38.831Z,15.65
2023-05-19T10:33:38.155Z,15.63
2023-05-19T10:36:40.659Z,15.63
2023-05-19T10:39:37.628Z,15.61
2023-05-19T10:42:34.964Z,15.58
2023-05-19T10:45:32.072Z,15.60
2023-05-19T10:48:24.984Z,15.54
2023-05-19T10:51:19.057Z,15.48
2023-05-19T10:54:16.115Z,15.41
2023-05-19T10:57:10.097Z,15.38
2023-05-19T11:00:11.732Z,15.33
2023-05-19T11:03:17.933Z,15.33
2023-05-19T11:06:29.491Z,15.42
2023-05-19T11:09:37.883Z,15.55
2023-05-19T11:12:44.900Z,15.61
2023-05-19T11:15:39.166Z,15.65
2023-05-19T11:18:41.085Z,15.67
2023-05-19T11:21:47.169Z,15.74
2023-05-19T11:24:41.963Z,15.84
2023-05-19T11:27:32.877Z,15.93
2023-05-19T11:30:26.253Z,16.09
2023-05-19T11:33:09.267Z,16.20
2023-05-19T11:36:02.137Z,16.22
2023-05-19T11:38:55.391Z,16.14
2023-05-19T11:41:43.289Z,16.07
2023-05-19T11:44:38.784Z,15.94
2023-05-19T11:47:23.816Z,15.92
2023-05-19T11:50:07.801Z,15.96
2023-05-19T11:52:51.689Z,15.98
2023-05-19T11:55:25.051Z,15.99
2023-05-19T11:58:10.428Z,15.98
2023-05-19T12:00:52.800Z,15.93
2023-05-19T12:03:46.745Z,15.87
2023-05-19T12:06:23.126Z,15.88
2023-05-19T12:08:57.483Z,15.92
2023-05-19T12:11:41.438Z,15.87
2023-05-19T12:14:16.537Z,15.82
2023-05-19T12:16:49.420Z,15.87
2023-05-19T12:19:24.391Z,15.95
2023-05-19T12:22:08.410Z,15.99
2023-05-19T12:24:44.227Z,16.02
2023-05-19T12:27:39.401Z,16.01
2023-05-19T12:30:15.526Z,15.98
2023-05-19T12:32:52.276Z,15.99
2023-05-19T12:35:38.965Z,16.04
2023-05-19T12:38:22.356Z,16.09
2023-05-19T12:41:15.964Z,16.14
2023-05-19T12:44:18.418Z,16.13
2023-05-19T12:46:58.559Z,16.14
2023-05-19T12:50:04.789Z,16.22
2023-05-19T12:52:59.734Z,16.23
2023-05-19T12:55:56.104Z,16.16
2023-05-19T12:58:41.644Z,16.08
2023-05-19T13:01:25.741Z,16.07
2023-05-19T13:04:06.052Z,16.12
2023-05-19T13:06:39.621Z,16.23
2023-05-19T13:09:17.052Z,16.31
2023-05-19T13:12:09.482Z,16.40
2023-05-19T13:15:00.952Z,16.42
2023-05-19T13:17:46.541Z,16.40
2023-05-19T13:20:41.004Z,16.48
2023-05-19T13:23:35.602Z,16.56
2023-05-19T13:26:16.985Z,16.62
2023-05-19T13:29:02.345Z,16.59
2023-05-19T13:31:55.304Z,16.46
2023-05-19T13:34:48.214Z,16.36
2023-05-19T13:37:31.797Z,16.30
2023-05-19T13:40:15.870Z,16.18
2023-05-19T13:42:53.462Z,16.15
2023-05-19T13:45:30.302Z,16.14
2023-05-19T13:48:08.660Z,16.16
2023-05-19T13:51:02.423Z,16.16
2023-05-19T13:53:43.910Z,16.07
2023-05-19T13:56:37.122Z,15.99
2023-05-19T13:59:29.930Z,15.95
2023-05-19T14:02:22.607Z,15.91
2023-05-19T14:05:15.894Z,15.95
2023-05-19T14:08:01.243Z,16.00
2023-05-19T14:10:57.190Z,16.04
2023-05-19T14:13:33.852Z,16.07
2023-05-19T14:16:23.205Z,16.08
2023-05-19T14:19:07.884Z,16.06
2023-05-19T14:21:54.524Z,16.03
2023-05-19T14:24:29.604Z,15.92
2023-05-19T14:27:02.658Z,15.81
2023-05-19T14:29:38.921Z,15.72
2023-05-19T14:32:31.617Z,15.68
2023-05-19T14:35:24.275Z,15.67
2023-05-19T14:38:10.189Z,15.74
2023-05-19T14:41:03.360Z,15.80
2023-05-19T14:43:55.328Z,15.84
2023-05-19T14:46:42.503Z,15.85
2023-05-19T14:49:15.288Z,15.85
2023-05-19T14:52:02.050Z,15.84
2023-05-19T14:54:41.070Z,15.85
2023-05-19T14:57:13.423Z,15.78
2023-05-19T14:59:46.619Z,15.67
2023-05-19T15:02:18.819Z,15.57
2023-05-19T15:04:51.284Z,15.49
2023-05-19T15:07:24.756Z,15.45
2023-05-19T15:09:57.405Z,15.44
2023-05-19T15:12:30.045Z,15.44
2023-05-19T15:15:02.944Z,15.46
2023-05-19T15:17:35.807Z,15.44
2023-05-19T15:20:10.390Z,15.37
2023-05-19T15:22:43.024Z,15.35
2023-05-19T15:25:15.781Z,15.36
2023-05-19T15:27:48.280Z,15.35
2023-05-19T15:30:21.213Z,15.30
2023-05-19T15:32:53.988Z,15.24
2023-05-19T15:35:26.796Z,15.19
2023-05-19T15:38:19.615Z,15.19
2023-05-19T15:41:13.103Z,15.22
2023-05-19T15:43:46.714Z,15.26
2023-05-19T15:46:21.871Z,15.28
2023-05-19T15:48:55.168Z,15.26
2023-05-19T15:51:32.440Z,15.21
2023-05-19T15:54:05.292Z,15.16
2023-05-19T15:56:41.468Z,15.14
2023-05-19T15:59:17.627Z,15.11
2023-05-19T16:02:07.250Z,15.08
2023-05-19T16:04:42.390Z,15.07
2023-05-19T16:07:20.908Z,15.04
2023-05-19T16:10:05.320Z,15.02
2023-05-19T16:12:41.454Z,14.99
2023-05-19T16:15:34.776Z,15.00
2023-05-19T16:18:10.362Z,15.03
2023-05-19T16:20:45.510Z,15.07
2023-05-19T16:23:21.149Z,15.12
2023-05-19T16:25:57.617Z,15.15
2023-05-19T16:28:30.583Z,15.17
2023-05-19T16:31:12.350Z,15.15
2023-05-19T16:33:48.213Z,15.13
2023-05-19T16:36:27.595Z,15.10
2023-05-19T16:39:10.070Z,15.08
2023-05-19T16:41:53.182Z,15.08
2023-05-19T16:44:36.870Z,15.08
2023-05-19T16:47:29.885Z,15.09
2023-05-19T16:50:11.046Z,15.09
2023-05-19T16:52:46.802Z,15.05
2023-05-19T16:55:20.895Z,15.02
2023-05-19T16:57:57.162Z,15.01
2023-05-19T17:00:30.722Z,14.98
2023-05-19T17:03:09.148Z,14.95
2023-05-19T17:05:51.213Z,14.92
2023-05-19T17:08:34.821Z,14.88
2023-05-19T17:11:09.773Z,14.83
2023-05-19T17:13:52.260Z,14.81
2023-05-19T17:16:37.780Z,14.78
2023-05-19T17:19:14.040Z,14.75
2023-05-19T17:21:46.883Z,14.70
2023-05-19T17:24:19.728Z,14.66
2023-05-19T17:26:52.571Z,14.64
2023-05-19T17:29:27.101Z,14.64
2023-05-19T17:31:59.781Z,14.66
2023-05-19T17:34:32.233Z,14.68
2023-05-19T17:37:05.141Z,14.68
2023-05-19T17:39:39.090Z,14.66
2023-05-19T17:42:11.926Z,14.64
2023-05-19T17:44:44.957Z,14.60
2023-05-19T17:47:17.278Z,14.57
2023-05-19T17:49:50.463Z,14.53
2023-05-19T17:52:26.599Z,14.50
2023-05-19T17:55:00.001Z,14.48
2023-05-19T17:57:34.721Z,14.45
2023-05-19T18:00:10.597Z,14.43
2023-05-19T18:02:44.292Z,14.41
2023-05-19T18:05:18.819Z,14.40
2023-05-19T18:07:51.293Z,14.47
2023-05-19T18:10:27.096Z,14.45
2023-05-19T18:13:00.453Z,14.40
2023-05-19T18:15:33.046Z,14.35
2023-05-19T18:18:07.935Z,14.30
2023-05-19T18:20:44.489Z,14.26
2023-05-19T18:23:17.397Z,14.24
2023-05-19T18:25:53.562Z,14.20
2023-05-19T18:28:26.590Z,14.19
2023-05-19T18:31:06.304Z,14.16
2023-05-19T18:33:40.133Z,14.17
2023-05-19T18:36:13.617Z,14.16
2023-05-19T18:38:58.201Z,14.12
2023-05-19T18:41:32.246Z,14.09
2023-05-19T18:44:06.340Z,14.05
2023-05-19T18:46:39.840Z,14.02
2023-05-19T18:49:25.141Z,14.06
2023-05-19T18:51:58.246Z,14.14
2023-05-19T18:54:32.594Z,14.17
2023-05-19T18:57:05.359Z,14.13
2023-05-19T18:59:38.328Z,14.11
2023-05-19T19:02:11.177Z,14.05
2023-05-19T19:04:45.519Z,13.99
2023-05-19T19:07:18.291Z,13.95
2023-05-19T19:09:50.821Z,13.90
2023-05-19T19:12:25.212Z,13.86
2023-05-19T19:14:57.734Z,13.83
2023-05-19T19:17:30.660Z,13.80
2023-05-19T19:20:03.283Z,13.77
2023-05-19T19:22:38.739Z,13.73
2023-05-19T19:25:12.289Z,13.71
2023-05-19T19:27:45.034Z,13.71
2023-05-19T19:30:17.765Z,13.71
2023-05-19T19:32:50.509Z,13.74
2023-05-19T19:35:24.756Z,13.82
2023-05-19T19:37:58.590Z,13.88
2023-05-19T19:40:32.524Z,13.92
2023-05-19T19:43:05.378Z,13.94
2023-05-19T19:46:04.615Z,13.87
2023-05-19T19:49:00.427Z,13.78
2023-05-19T19:51:53.486Z,13.73
2023-05-19T19:54:46.375Z,13.67
2023-05-19T19:57:34.328Z,13.61
2023-05-19T20:00:19.296Z,13.55
2023-05-19T20:03:13.443Z,13.49
2023-05-19T20:06:07.718Z,13.44
2023-05-19T20:09:00.615Z,13.43
2023-05-19T20:11:45.718Z,13.38
2023-05-19T20:14:31.244Z,13.35
2023-05-19T20:17:24.323Z,13.34
2023-05-19T20:20:12.541Z,13.33
2023-05-19T20:23:05.177Z,13.31
2023-05-19T20:26:10.299Z,13.30
2023-05-19T20:29:04.193Z,13.29
2023-05-19T20:31:57.203Z,13.29
2023-05-19T20:34:43.290Z,13.28
2023-05-19T20:37:36.869Z,13.28
2023-05-19T20:40:23.307Z,13.28
2023-05-19T20:43:16.217Z,13.27
2023-05-19T20:46:09.174Z,13.26
2023-05-19T20:49:02.804Z,13.24
2023-05-19T20:51:55.833Z,13.22
2023-05-19T20:54:49.131Z,13.20
2023-05-19T20:57:41.698Z,13.19
2023-05-19T21:00:34.505Z,13.18
2023-05-19T21:03:11.833Z,13.17
2023-05-19T21:06:04.713Z,13.16
2023-05-19T21:08:57.635Z,13.14
2023-05-19T21:11:53.776Z,13.13
2023-05-19T21:14:39.115Z,13.13
2023-05-19T21:17:32.067Z,13.13
2023-05-19T21:20:16.334Z,13.14
2023-05-19T21:23:10.133Z,13.14
2023-05-19T21:26:01.710Z,13.14
2023-05-19T21:28:56.410Z,13.12
2023-05-19T21:31:42.197Z,13.10
2023-05-19T21:34:27.909Z,13.09
2023-05-19T21:37:11.848Z,13.10
2023-05-19T21:39:57.772Z,13.12
2023-05-19T21:42:52.658Z,13.13
2023-05-19T21:45:45.185Z,13.13
2023-05-19T21:48:38.858Z,13.13
2023-05-19T21:51:31.713Z,13.14
2023-05-19T21:54:25.870Z,13.15
2023-05-19T21:57:18.840Z,13.15
2023-05-19T22:00:06.517Z,13.16
2023-05-19T22:02:59.122Z,13.16
2023-05-19T22:05:56.386Z,13.16
2023-05-19T22:08:50.040Z,13.16
2023-05-19T22:11:44.691Z,13.14
2023-05-19T22:14:37.662Z,13.12
2023-05-19T22:17:30.874Z,13.11
2023-05-19T22:20:17.670Z,13.12
2023-05-19T22:23:11.467Z,13.13
2023-05-19T22:25:58.265Z,13.13
2023-05-19T22:28:33.785Z,13.13
2023-05-19T22:31:08.956Z,13.13
2023-05-19T22:33:41.443Z,13.13
2023-05-19T22:36:16.138Z,13.13
2023-05-19T22:38:49.057Z,13.13
2023-05-19T22:41:23.697Z,13.14
2023-05-19T22:43:57.052Z,13.13
2023-05-19T22:46:29.616Z,13.13
2023-05-19T22:49:23.649Z,13.14
2023-05-19T22:52:10.248Z,13.13
2023-05-19T22:54:42.892Z,13.13
2023-05-19T22:57:35.722Z,13.15
2023-05-19T23:00:28.508Z,13.17
2023-05-19T23:03:20.999Z,13.17
2023-05-19T23:06:12.184Z,13.17
2023-05-19T23:09:05.882Z,13.18
2023-05-19T23:11:58.783Z,13.18
2023-05-19T23:14:51.483Z,13.16
2023-05-19T23:17:29.819Z,13.15
2023-05-19T23:20:22.815Z,13.14
2023-05-19T23:23:15.445Z,13.14
2023-05-19T23:25:58.137Z,13.13
2023-05-19T23:28:49.191Z,13.12
2023-05-19T23:31:42.483Z,13.12
2023-05-19T23:34:28.997Z,13.11
2023-05-19T23:37:08.614Z,13.11
2023-05-19T23:40:01.249Z,13.11
2023-05-19T23:42:54.455Z,13.11
2023-05-19T23:45:30.350Z,13.11
2023-05-19T23:48:11.551Z,13.11
2023-05-19T23:51:04.584Z,13.10
2023-05-19T23:53:50.020Z,13.10
2023-05-19T23:56:41.424Z,13.12
2023-05-19T23:59:31.426Z,13.12
